createdAt,value
2018-12-04T00:00:19.065Z,996.55
2018-12-04T00:01:19.053Z,996.59
2018-12-04T00:02:19.042Z,996.57
2018-12-04T00:03:19.033Z,996.57
2018-12-04T00:04:19.024Z,996.58
2018-12-04T00:05:19.014Z,996.59
2018-12-04T00:06:19.000Z,996.57
2018-12-04T00:07:18.989Z,996.58
2018-12-04T00:08:18.977Z,996.61
2018-12-04T00:09:19.301Z,996.59
2018-12-04T00:10:18.959Z,996.59
2018-12-04T00:11:18.946Z,996.62
2018-12-04T00:12:18.936Z,996.63
2018-12-04T00:13:18.925Z,996.64
2018-12-04T00:14:18.950Z,996.61
2018-12-04T00:15:18.907Z,996.60
2018-12-04T00:16:18.894Z,996.61
2018-12-04T00:17:18.912Z,996.66
2018-12-04T00:18:18.873Z,996.66
2018-12-04T00:19:18.862Z,996.65
2018-12-04T00:20:18.872Z,996.66
2018-12-04T00:21:18.841Z,996.64
2018-12-04T00:22:18.837Z,996.71
2018-12-04T00:23:18.820Z,996.69
2018-12-04T00:24:18.810Z,996.68
2018-12-04T00:25:18.800Z,996.68
2018-12-04T00:26:18.790Z,996.73
2018-12-04T00:27:18.778Z,996.74
2018-12-04T00:28:18.772Z,996.71
2018-12-04T00:29:18.755Z,996.74
2018-12-04T00:30:18.746Z,996.72
2018-12-04T00:31:19.017Z,996.77
2018-12-04T00:32:18.726Z,996.75
2018-12-04T00:33:18.714Z,996.75
2018-12-04T00:34:18.704Z,996.83
2018-12-04T00:35:18.693Z,996.80
2018-12-04T00:36:18.682Z,996.80
2018-12-04T00:37:18.675Z,996.76
2018-12-04T00:38:18.663Z,996.78
2018-12-04T00:39:18.650Z,996.85
2018-12-04T00:40:18.640Z,996.78
2018-12-04T00:41:18.628Z,996.86
2018-12-04T00:42:18.905Z,996.87
2018-12-04T00:43:18.607Z,996.85
2018-12-04T00:44:18.598Z,996.87
2018-12-04T00:45:18.589Z,996.89
2018-12-04T00:46:18.576Z,996.88
2018-12-04T00:47:18.565Z,996.93
2018-12-04T00:48:18.557Z,996.97
2018-12-04T00:49:18.545Z,996.99
2018-12-04T00:50:18.538Z,996.97
2018-12-04T00:51:18.529Z,997.00
2018-12-04T00:52:18.517Z,997.01
2018-12-04T00:53:18.528Z,997.03
2018-12-04T00:54:18.493Z,996.97
2018-12-04T00:55:18.482Z,997.04
2018-12-04T00:56:18.470Z,997.00
2018-12-04T00:57:18.461Z,997.02
2018-12-04T00:58:18.451Z,997.05
2018-12-04T00:59:18.442Z,997.04
2018-12-04T01:00:18.429Z,997.05
2018-12-04T01:01:18.419Z,997.05
2018-12-04T01:02:18.408Z,997.10
2018-12-04T01:03:18.397Z,997.08
2018-12-04T01:04:18.724Z,997.14
2018-12-04T01:05:18.377Z,997.17
2018-12-04T01:06:18.367Z,997.10
2018-12-04T01:07:18.356Z,997.14
2018-12-04T01:08:18.344Z,997.17
2018-12-04T01:09:18.334Z,997.18
2018-12-04T01:10:18.326Z,997.17
2018-12-04T01:11:18.313Z,997.18
2018-12-04T01:12:18.303Z,997.18
2018-12-04T01:13:18.293Z,997.17
2018-12-04T01:14:18.282Z,997.19
2018-12-04T01:15:18.557Z,997.19
2018-12-04T01:16:18.260Z,997.22
2018-12-04T01:17:18.254Z,997.22
2018-12-04T01:18:18.240Z,997.26
2018-12-04T01:19:18.230Z,997.26
2018-12-04T01:20:18.220Z,997.26
2018-12-04T01:21:18.209Z,997.26
2018-12-04T01:22:18.198Z,997.28
2018-12-04T01:23:18.194Z,997.28
2018-12-04T01:24:18.176Z,997.27
2018-12-04T01:25:18.166Z,997.28
2018-12-04T01:26:18.446Z,997.26
2018-12-04T01:27:18.146Z,997.26
2018-12-04T01:28:18.133Z,997.26
2018-12-04T01:29:18.123Z,997.27
2018-12-04T01:30:18.112Z,997.30
2018-12-04T01:31:18.101Z,997.30
2018-12-04T01:32:18.093Z,997.30
2018-12-04T01:33:18.081Z,997.31
2018-12-04T01:34:18.069Z,997.35
2018-12-04T01:35:18.059Z,997.35
2018-12-04T01:36:18.048Z,997.32
2018-12-04T01:37:18.324Z,997.30
2018-12-04T01:38:18.027Z,997.33
2018-12-04T01:39:18.018Z,997.29
2018-12-04T01:40:18.007Z,997.33
2018-12-04T01:41:17.996Z,997.32
2018-12-04T01:42:17.984Z,997.31
2018-12-04T01:43:17.977Z,997.31
2018-12-04T01:44:17.965Z,997.30
2018-12-04T01:45:17.954Z,997.28
2018-12-04T01:46:17.943Z,997.30
2018-12-04T01:47:17.954Z,997.26
2018-12-04T01:48:18.250Z,997.28
2018-12-04T01:49:17.912Z,997.32
2018-12-04T01:50:17.901Z,997.29
2018-12-04T01:51:17.889Z,997.24
2018-12-04T01:52:17.880Z,997.26
2018-12-04T01:53:17.868Z,997.25
2018-12-04T01:54:17.861Z,997.24
2018-12-04T01:55:17.847Z,997.23
2018-12-04T01:56:17.871Z,997.24
2018-12-04T01:57:17.827Z,997.28
2018-12-04T01:58:17.817Z,997.27
2018-12-04T01:59:17.814Z,997.26
2018-12-04T02:00:17.795Z,997.26
2018-12-04T02:01:17.784Z,997.28
2018-12-04T02:02:17.773Z,997.29
2018-12-04T02:03:17.763Z,997.26
2018-12-04T02:04:17.756Z,997.30
2018-12-04T02:05:17.743Z,997.26
2018-12-04T02:06:17.732Z,997.24
2018-12-04T02:07:17.722Z,997.27
2018-12-04T02:08:17.710Z,997.27
2018-12-04T02:09:17.700Z,997.28
2018-12-04T02:10:18.067Z,997.27
2018-12-04T02:11:17.680Z,997.29
2018-12-04T02:12:17.668Z,997.29
2018-12-04T02:13:17.659Z,997.31
2018-12-04T02:14:17.646Z,997.30
2018-12-04T02:15:17.635Z,997.27
2018-12-04T02:16:17.628Z,997.34
2018-12-04T02:17:17.614Z,997.36
2018-12-04T02:18:17.604Z,997.35
2018-12-04T02:19:17.594Z,997.39
2018-12-04T02:20:17.587Z,997.35
2018-12-04T02:21:17.871Z,997.38
2018-12-04T02:22:17.563Z,997.35
2018-12-04T02:23:17.552Z,997.38
2018-12-04T02:24:17.581Z,997.37
2018-12-04T02:25:17.532Z,997.39
2018-12-04T02:26:17.519Z,997.38
2018-12-04T02:27:17.517Z,997.41
2018-12-04T02:28:17.498Z,997.38
2018-12-04T02:29:17.489Z,997.39
2018-12-04T02:30:17.479Z,997.43
2018-12-04T02:31:17.467Z,997.51
2018-12-04T02:32:17.465Z,997.50
2018-12-04T02:33:17.449Z,997.51
2018-12-04T02:34:17.436Z,997.46
2018-12-04T02:35:17.424Z,997.47
2018-12-04T02:36:17.415Z,997.48
2018-12-04T02:37:17.405Z,997.51
2018-12-04T02:38:17.396Z,997.51
2018-12-04T02:39:17.385Z,997.51
2018-12-04T02:40:17.384Z,997.53
2018-12-04T02:41:17.362Z,997.56
2018-12-04T02:42:17.352Z,997.59
2018-12-04T02:43:17.666Z,997.57
2018-12-04T02:44:17.330Z,997.56
2018-12-04T02:45:17.324Z,997.60
2018-12-04T02:46:17.315Z,997.59
2018-12-04T02:47:17.298Z,997.60
2018-12-04T02:48:17.287Z,997.62
2018-12-04T02:49:17.280Z,997.64
2018-12-04T02:50:17.267Z,997.70
2018-12-04T02:51:17.257Z,997.72
2018-12-04T02:52:17.246Z,997.75
2018-12-04T02:53:17.238Z,997.71
2018-12-04T02:54:17.514Z,997.74
2018-12-04T02:55:17.213Z,997.73
2018-12-04T02:56:17.208Z,997.71
2018-12-04T02:57:17.192Z,997.75
2018-12-04T02:58:17.181Z,997.80
2018-12-04T02:59:17.176Z,997.77
2018-12-04T03:00:17.170Z,997.82
2018-12-04T03:01:17.150Z,997.80
2018-12-04T03:02:17.139Z,997.86
2018-12-04T03:03:17.129Z,997.88
2018-12-04T03:04:17.128Z,997.84
2018-12-04T03:05:17.128Z,997.89
2018-12-04T03:06:17.100Z,997.93
2018-12-04T03:07:17.092Z,997.98
2018-12-04T03:08:17.076Z,997.94
2018-12-04T03:09:17.065Z,997.99
2018-12-04T03:10:17.058Z,998.02
2018-12-04T03:11:17.047Z,998.06
2018-12-04T03:12:17.035Z,998.11
2018-12-04T03:13:17.023Z,998.12
2018-12-04T03:14:17.014Z,998.17
2018-12-04T03:15:17.005Z,998.20
2018-12-04T03:16:17.276Z,998.26
2018-12-04T03:17:16.983Z,998.23
2018-12-04T03:18:16.971Z,998.27
2018-12-04T03:19:16.960Z,998.27
2018-12-04T03:20:16.951Z,998.32
2018-12-04T03:21:16.939Z,998.26
2018-12-04T03:22:16.934Z,998.32
2018-12-04T03:23:16.919Z,998.44
2018-12-04T03:24:16.907Z,998.48
2018-12-04T03:25:16.898Z,998.50
2018-12-04T03:26:16.888Z,998.51
2018-12-04T03:27:16.882Z,998.55
2018-12-04T03:28:16.866Z,998.59
2018-12-04T03:29:16.856Z,998.62
2018-12-04T03:30:16.867Z,998.66
2018-12-04T03:31:16.839Z,998.76
2018-12-04T03:32:16.824Z,998.74
2018-12-04T03:33:16.822Z,998.74
2018-12-04T03:34:16.803Z,998.77
2018-12-04T03:35:16.795Z,998.82
2018-12-04T03:36:16.782Z,998.86
2018-12-04T03:37:16.771Z,998.92
2018-12-04T03:38:17.027Z,998.97
2018-12-04T03:39:16.753Z,999.03
2018-12-04T03:40:16.739Z,999.13
2018-12-04T03:41:16.731Z,999.12
2018-12-04T03:42:16.720Z,999.16
2018-12-04T03:43:16.707Z,999.21
2018-12-04T03:44:16.698Z,999.32
2018-12-04T03:45:16.686Z,999.35
2018-12-04T03:46:16.679Z,999.46
2018-12-04T03:47:16.667Z,999.41
2018-12-04T03:48:16.656Z,999.45
2018-12-04T03:49:17.458Z,999.47
2018-12-04T03:50:16.635Z,999.43
2018-12-04T03:51:16.623Z,999.53
2018-12-04T03:52:16.612Z,999.47
2018-12-04T03:53:16.603Z,999.54
2018-12-04T03:54:16.595Z,999.59
2018-12-04T03:55:16.585Z,999.67
2018-12-04T03:56:16.573Z,999.66
2018-12-04T03:57:16.561Z,999.63
2018-12-04T03:58:16.549Z,999.65
2018-12-04T03:59:16.539Z,999.73
2018-12-04T04:00:16.536Z,999.75
2018-12-04T04:01:16.518Z,999.78
2018-12-04T04:02:16.509Z,999.87
2018-12-04T04:03:16.498Z,999.84
2018-12-04T04:04:16.493Z,999.88
2018-12-04T04:05:16.478Z,999.86
2018-12-04T04:06:16.468Z,999.87
2018-12-04T04:07:16.454Z,999.92
2018-12-04T04:08:16.444Z,999.99
2018-12-04T04:09:16.435Z,999.95
2018-12-04T04:10:17.295Z,1000.02
2018-12-04T04:11:16.433Z,1000.03
2018-12-04T04:12:16.406Z,1000.09
2018-12-04T04:13:16.395Z,1000.04
2018-12-04T04:14:16.381Z,1000.04
2018-12-04T04:15:16.370Z,1000.09
2018-12-04T04:16:16.362Z,1000.12
2018-12-04T04:17:16.352Z,1000.20
2018-12-04T04:18:16.348Z,1000.20
2018-12-04T04:19:16.329Z,1000.32
2018-12-04T04:20:16.318Z,1000.31
2018-12-04T04:21:16.310Z,1000.24
2018-12-04T04:22:16.332Z,1000.37
2018-12-04T04:23:16.289Z,1000.38
2018-12-04T04:24:16.277Z,1000.37
2018-12-04T04:25:16.268Z,1000.34
2018-12-04T04:26:16.257Z,1000.43
2018-12-04T04:27:16.244Z,1000.44
2018-12-04T04:28:16.237Z,1000.45
2018-12-04T04:29:16.226Z,1000.49
2018-12-04T04:30:16.216Z,1000.48
2018-12-04T04:31:16.203Z,1000.56
2018-12-04T04:32:16.192Z,1000.51
2018-12-04T04:33:16.188Z,1000.55
2018-12-04T04:34:16.172Z,1000.53
2018-12-04T04:35:16.161Z,1000.60
2018-12-04T04:36:16.151Z,1000.63
2018-12-04T04:37:16.141Z,1000.60
2018-12-04T04:38:16.129Z,1000.69
2018-12-04T04:39:16.120Z,1000.69
2018-12-04T04:40:16.109Z,1000.70
2018-12-04T04:41:16.097Z,1000.66
2018-12-04T04:42:16.088Z,1000.72
2018-12-04T04:43:16.079Z,1000.75
2018-12-04T04:44:16.099Z,1000.81
2018-12-04T04:45:16.056Z,1000.83
2018-12-04T04:46:16.047Z,1000.83
2018-12-04T04:47:16.041Z,1000.81
2018-12-04T04:48:16.024Z,1000.89
2018-12-04T04:49:16.018Z,1000.91
2018-12-04T04:50:16.005Z,1000.96
2018-12-04T04:51:15.995Z,1000.97
2018-12-04T04:52:15.982Z,1001.04
2018-12-04T04:53:15.973Z,1001.04
2018-12-04T04:54:15.964Z,1001.06
2018-12-04T04:55:16.264Z,1001.14
2018-12-04T04:56:15.939Z,1001.16
2018-12-04T04:57:15.930Z,1001.16
2018-12-04T04:58:15.948Z,1001.20
2018-12-04T04:59:15.908Z,1001.25
2018-12-04T05:00:15.897Z,1001.30
2018-12-04T05:01:15.890Z,1001.26
2018-12-04T05:02:15.878Z,1001.34
2018-12-04T05:03:15.868Z,1001.36
2018-12-04T05:04:15.856Z,1001.37
2018-12-04T05:05:15.846Z,1001.45
2018-12-04T05:06:15.843Z,1001.40
2018-12-04T05:07:15.824Z,1001.42
2018-12-04T05:08:15.815Z,1001.45
2018-12-04T05:09:15.803Z,1001.58
2018-12-04T05:10:15.793Z,1001.57
2018-12-04T05:11:15.782Z,1001.60
2018-12-04T05:12:15.781Z,1001.58
2018-12-04T05:13:15.762Z,1001.64
2018-12-04T05:14:15.752Z,1001.63
2018-12-04T05:15:15.740Z,1001.70
2018-12-04T05:16:15.731Z,1001.64
2018-12-04T05:17:15.748Z,1001.70
2018-12-04T05:18:15.710Z,1001.78
2018-12-04T05:19:15.699Z,1001.75
2018-12-04T05:20:15.689Z,1001.83
2018-12-04T05:21:15.680Z,1001.83
2018-12-04T05:22:15.667Z,1001.94
2018-12-04T05:23:15.658Z,1001.98
2018-12-04T05:24:15.646Z,1001.99
2018-12-04T05:25:15.636Z,1002.00
2018-12-04T05:26:15.625Z,1002.04
2018-12-04T05:27:15.614Z,1002.11
2018-12-04T05:28:15.948Z,1002.08
2018-12-04T05:29:15.593Z,1002.14
2018-12-04T05:30:15.582Z,1002.15
2018-12-04T05:31:15.572Z,1002.26
2018-12-04T05:32:15.562Z,1002.26
2018-12-04T05:33:15.551Z,1002.29
2018-12-04T05:34:15.542Z,1002.31
2018-12-04T05:35:15.531Z,1002.35
2018-12-04T05:36:15.521Z,1002.42
2018-12-04T05:37:15.510Z,1002.42
2018-12-04T05:38:15.497Z,1002.43
2018-12-04T05:39:15.495Z,1002.46
2018-12-04T05:40:15.477Z,1002.58
2018-12-04T05:41:15.467Z,1002.48
2018-12-04T05:42:15.457Z,1002.49
2018-12-04T05:43:15.448Z,1002.54
2018-12-04T05:44:15.436Z,1002.55
2018-12-04T05:45:15.470Z,1002.54
2018-12-04T05:46:15.414Z,1002.62
2018-12-04T05:47:15.406Z,1002.68
2018-12-04T05:48:15.393Z,1002.67
2018-12-04T05:49:15.383Z,1002.81
2018-12-04T05:50:15.379Z,1002.73
2018-12-04T05:51:15.363Z,1002.89
2018-12-04T05:52:15.353Z,1002.85
2018-12-04T05:53:15.341Z,1002.94
2018-12-04T05:54:15.333Z,1002.95
2018-12-04T05:55:15.320Z,1002.98
2018-12-04T05:56:15.318Z,1002.97
2018-12-04T05:57:15.299Z,1002.95
2018-12-04T05:58:15.287Z,1003.01
2018-12-04T05:59:15.278Z,1003.03
2018-12-04T06:00:15.266Z,1003.10
2018-12-04T06:01:15.289Z,1003.13
2018-12-04T06:02:15.246Z,1003.13
2018-12-04T06:03:15.235Z,1003.20
2018-12-04T06:04:15.224Z,1003.15
2018-12-04T06:05:15.223Z,1003.22
2018-12-04T06:06:15.206Z,1003.25
2018-12-04T06:07:15.194Z,1003.24
2018-12-04T06:08:15.186Z,1003.30
2018-12-04T06:09:15.174Z,1003.32
2018-12-04T06:10:15.162Z,1003.30
2018-12-04T06:11:15.150Z,1003.38
2018-12-04T06:12:15.465Z,1003.36
2018-12-04T06:13:15.133Z,1003.35
2018-12-04T06:14:15.228Z,1003.43
2018-12-04T06:15:15.108Z,1003.45
2018-12-04T06:16:15.099Z,1003.52
2018-12-04T06:17:15.088Z,1003.49
2018-12-04T06:18:15.079Z,1003.53
2018-12-04T06:19:15.073Z,1003.54
2018-12-04T06:20:15.057Z,1003.63
2018-12-04T06:21:15.047Z,1003.64
2018-12-04T06:22:15.033Z,1003.66
2018-12-04T06:23:15.053Z,1003.69
2018-12-04T06:24:15.014Z,1003.62
2018-12-04T06:25:15.003Z,1003.75
2018-12-04T06:26:14.992Z,1003.75
2018-12-04T06:27:14.984Z,1003.80
2018-12-04T06:28:15.043Z,1003.81
2018-12-04T06:29:14.964Z,1003.77
2018-12-04T06:30:14.951Z,1003.99
2018-12-04T06:31:14.940Z,1003.93
2018-12-04T06:32:14.930Z,1003.87
2018-12-04T06:33:14.919Z,1003.83
2018-12-04T06:34:14.915Z,1003.88
2018-12-04T06:35:14.898Z,1003.94
2018-12-04T06:36:14.888Z,1003.91
2018-12-04T06:37:14.877Z,1003.98
2018-12-04T06:38:14.868Z,1004.10
2018-12-04T06:39:14.918Z,1004.15
2018-12-04T06:40:14.848Z,1004.09
2018-12-04T06:41:14.833Z,1004.15
2018-12-04T06:42:14.824Z,1004.14
2018-12-04T06:43:14.814Z,1004.36
2018-12-04T06:44:14.802Z,1004.19
2018-12-04T06:45:14.800Z,1004.24
2018-12-04T06:46:14.784Z,1004.24
2018-12-04T06:47:14.771Z,1004.38
2018-12-04T06:48:14.761Z,1004.28
2018-12-04T06:49:14.750Z,1004.45
2018-12-04T06:50:14.740Z,1004.41
2018-12-04T06:51:14.732Z,1004.35
2018-12-04T06:52:14.720Z,1004.38
2018-12-04T06:53:14.709Z,1004.41
2018-12-04T06:54:14.699Z,1004.60
2018-12-04T06:55:14.687Z,1004.56
2018-12-04T06:56:14.685Z,1004.61
2018-12-04T06:57:14.667Z,1004.61
2018-12-04T06:58:14.656Z,1004.80
2018-12-04T06:59:14.647Z,1004.74
2018-12-04T07:00:14.638Z,1004.79
2018-12-04T07:01:14.628Z,1004.82
2018-12-04T07:02:14.620Z,1004.86
2018-12-04T07:03:14.603Z,1004.82
2018-12-04T07:04:14.594Z,1004.94
2018-12-04T07:05:14.582Z,1004.95
2018-12-04T07:06:14.573Z,1004.97
2018-12-04T07:07:14.589Z,1004.97
2018-12-04T07:08:14.551Z,1005.04
2018-12-04T07:09:14.540Z,1005.10
2018-12-04T07:10:14.530Z,1005.23
2018-12-04T07:11:14.518Z,1005.19
2018-12-04T07:12:14.509Z,1005.25
2018-12-04T07:13:14.505Z,1005.30
2018-12-04T07:14:14.488Z,1005.48
2018-12-04T07:15:14.500Z,1005.36
2018-12-04T07:16:14.469Z,1005.38
2018-12-04T07:17:14.461Z,1005.45
2018-12-04T07:18:14.477Z,1005.47
2018-12-04T07:19:14.436Z,1005.49
2018-12-04T07:20:14.425Z,1005.50
2018-12-04T07:21:14.414Z,1005.54
2018-12-04T07:22:14.403Z,1005.57
2018-12-04T07:23:14.393Z,1005.64
2018-12-04T07:24:14.386Z,1005.66
2018-12-04T07:25:14.372Z,1005.68
2018-12-04T07:26:14.361Z,1005.68
2018-12-04T07:27:14.351Z,1005.73
2018-12-04T07:28:14.339Z,1005.75
2018-12-04T07:29:14.390Z,1005.77
2018-12-04T07:30:14.318Z,1005.77
2018-12-04T07:31:14.308Z,1005.76
2018-12-04T07:32:14.301Z,1005.82
2018-12-04T07:33:14.286Z,1005.86
2018-12-04T07:34:14.276Z,1005.87
2018-12-04T07:35:14.268Z,1005.88
2018-12-04T07:36:14.254Z,1005.94
2018-12-04T07:37:14.246Z,1005.94
2018-12-04T07:38:14.234Z,1006.03
2018-12-04T07:39:14.223Z,1006.00
2018-12-04T07:40:14.243Z,1005.98
2018-12-04T07:41:14.202Z,1005.98
2018-12-04T07:42:14.193Z,1006.05
2018-12-04T07:43:14.180Z,1006.06
2018-12-04T07:44:14.169Z,1006.06
2018-12-04T07:45:14.159Z,1006.21
2018-12-04T07:46:14.152Z,1006.23
2018-12-04T07:47:14.138Z,1006.26
2018-12-04T07:48:14.128Z,1006.39
2018-12-04T07:49:14.117Z,1006.31
2018-12-04T07:50:14.105Z,1006.37
2018-12-04T07:51:14.421Z,1006.42
2018-12-04T07:52:14.084Z,1006.43
2018-12-04T07:53:14.075Z,1006.48
2018-12-04T07:54:14.065Z,1006.42
2018-12-04T07:55:14.052Z,1006.51
2018-12-04T07:56:14.042Z,1006.51
2018-12-04T07:57:14.033Z,1006.56
2018-12-04T07:58:14.022Z,1006.57
2018-12-04T07:59:14.013Z,1006.63
2018-12-04T08:00:13.999Z,1006.65
2018-12-04T08:01:13.990Z,1006.63
2018-12-04T08:02:14.007Z,1006.61
2018-12-04T08:03:13.973Z,1006.65
2018-12-04T08:04:13.957Z,1006.67
2018-12-04T08:05:13.949Z,1006.69
2018-12-04T08:06:13.935Z,1006.73
2018-12-04T08:07:13.925Z,1006.77
2018-12-04T08:08:13.916Z,1006.79
2018-12-04T08:09:13.908Z,1006.85
2018-12-04T08:10:13.894Z,1006.90
2018-12-04T08:11:13.885Z,1006.88
2018-12-04T08:12:13.873Z,1006.96
2018-12-04T08:13:13.894Z,1006.99
2018-12-04T08:14:13.850Z,1006.96
2018-12-04T08:15:13.843Z,1007.04
2018-12-04T08:16:13.830Z,1006.99
2018-12-04T08:17:13.821Z,1007.08
2018-12-04T08:18:13.813Z,1007.10
2018-12-04T08:19:13.803Z,1007.18
2018-12-04T08:20:13.788Z,1007.24
2018-12-04T08:21:13.778Z,1007.28
2018-12-04T08:22:13.767Z,1007.25
2018-12-04T08:23:13.762Z,1007.26
2018-12-04T08:24:13.781Z,1007.34
2018-12-04T08:25:13.735Z,1007.37
2018-12-04T08:26:13.726Z,1007.34
2018-12-04T08:27:13.715Z,1007.47
2018-12-04T08:28:13.705Z,1007.42
2018-12-04T08:29:13.693Z,1007.41
2018-12-04T08:30:13.685Z,1007.44
2018-12-04T08:31:13.677Z,1007.54
2018-12-04T08:32:13.663Z,1007.60
2018-12-04T08:33:13.652Z,1007.49
2018-12-04T08:34:13.641Z,1007.62
2018-12-04T08:35:13.638Z,1007.61
2018-12-04T08:36:13.618Z,1007.69
2018-12-04T08:37:13.609Z,1007.64
2018-12-04T08:38:13.600Z,1007.70
2018-12-04T08:39:13.587Z,1007.72
2018-12-04T08:40:13.579Z,1007.73
2018-12-04T08:41:13.569Z,1007.75
2018-12-04T08:42:13.555Z,1007.74
2018-12-04T08:43:13.546Z,1007.77
2018-12-04T08:44:13.535Z,1007.83
2018-12-04T08:45:13.524Z,1007.93
2018-12-04T08:46:13.549Z,1007.91
2018-12-04T08:47:13.503Z,1007.88
2018-12-04T08:48:13.492Z,1007.87
2018-12-04T08:49:13.482Z,1007.96
2018-12-04T08:50:13.474Z,1008.01
2018-12-04T08:51:13.466Z,1007.98
2018-12-04T08:52:13.454Z,1007.97
2018-12-04T08:53:13.442Z,1008.01
2018-12-04T08:54:13.430Z,1008.08
2018-12-04T08:55:13.421Z,1008.12
2018-12-04T08:56:13.409Z,1008.13
2018-12-04T08:57:13.431Z,1008.17
2018-12-04T08:58:13.388Z,1008.18
2018-12-04T08:59:13.378Z,1008.17
2018-12-04T09:00:13.369Z,1008.18
2018-12-04T09:01:13.358Z,1008.19
2018-12-04T09:02:13.347Z,1008.29
2018-12-04T09:03:13.341Z,1008.23
2018-12-04T09:04:13.332Z,1008.21
2018-12-04T09:05:13.357Z,1008.22
2018-12-04T09:06:13.304Z,1008.25
2018-12-04T09:07:13.294Z,1008.31
2018-12-04T09:08:13.321Z,1008.30
2018-12-04T09:09:13.276Z,1008.37
2018-12-04T09:10:13.264Z,1008.36
2018-12-04T09:11:13.260Z,1008.38
2018-12-04T09:12:13.241Z,1008.44
2018-12-04T09:13:13.231Z,1008.45
2018-12-04T09:14:13.223Z,1008.50
2018-12-04T09:15:13.211Z,1008.54
2018-12-04T09:16:13.201Z,1008.58
2018-12-04T09:17:13.191Z,1008.64
2018-12-04T09:18:13.232Z,1008.69
2018-12-04T09:19:13.221Z,1008.66
2018-12-04T09:20:13.212Z,1008.73
2018-12-04T09:21:13.169Z,1008.75
2018-12-04T09:22:13.158Z,1008.78
2018-12-04T09:23:13.134Z,1008.83
2018-12-04T09:24:13.148Z,1008.82
2018-12-04T09:25:13.115Z,1008.84
2018-12-04T09:26:13.140Z,1008.80
2018-12-04T09:27:13.088Z,1008.89
2018-12-04T09:28:13.076Z,1008.89
2018-12-04T09:29:13.116Z,1008.87
2018-12-04T09:30:13.084Z,1008.91
2018-12-04T09:31:13.042Z,1008.90
2018-12-04T09:32:13.031Z,1008.95
2018-12-04T09:33:13.021Z,1008.90
2018-12-04T09:34:13.018Z,1008.92
2018-12-04T09:35:12.999Z,1008.91
2018-12-04T09:36:12.991Z,1008.94
2018-12-04T09:37:12.978Z,1008.99
2018-12-04T09:38:12.967Z,1008.97
2018-12-04T09:39:12.956Z,1008.94
2018-12-04T09:40:13.618Z,1008.95
2018-12-04T09:41:12.957Z,1008.99
2018-12-04T09:42:12.926Z,1008.98
2018-12-04T09:43:12.914Z,1009.06
2018-12-04T09:44:12.905Z,1009.02
2018-12-04T09:45:12.892Z,1009.03
2018-12-04T09:46:12.883Z,1009.04
2018-12-04T09:47:12.878Z,1009.00
2018-12-04T09:48:12.862Z,1008.98
2018-12-04T09:49:12.852Z,1009.01
2018-12-04T09:50:12.841Z,1008.99
2018-12-04T09:51:12.831Z,1009.01
2018-12-04T09:52:12.857Z,1009.02
2018-12-04T09:53:12.811Z,1008.98
2018-12-04T09:54:12.803Z,1009.03
2018-12-04T09:55:12.797Z,1009.04
2018-12-04T09:56:12.777Z,1009.04
2018-12-04T09:57:12.766Z,1009.04
2018-12-04T09:58:12.763Z,1009.07
2018-12-04T09:59:12.824Z,1009.07
2018-12-04T10:00:12.736Z,1009.10
2018-12-04T10:01:12.724Z,1009.10
2018-12-04T10:02:12.714Z,1009.10
2018-12-04T10:03:12.715Z,1009.08
2018-12-04T10:04:12.693Z,1009.12
2018-12-04T10:05:12.683Z,1009.15
2018-12-04T10:06:12.673Z,1009.18
2018-12-04T10:07:12.661Z,1009.11
2018-12-04T10:08:12.651Z,1009.21
2018-12-04T10:09:12.641Z,1009.21
2018-12-04T10:10:12.631Z,1009.21
2018-12-04T10:11:12.621Z,1009.24
2018-12-04T10:12:12.609Z,1009.27
2018-12-04T10:13:12.600Z,1009.32
2018-12-04T10:14:12.624Z,1009.35
2018-12-04T10:15:12.577Z,1009.29
2018-12-04T10:16:12.568Z,1009.34
2018-12-04T10:17:12.558Z,1009.32
2018-12-04T10:18:12.545Z,1009.34
2018-12-04T10:19:12.534Z,1009.38
2018-12-04T10:20:12.526Z,1009.39
2018-12-04T10:21:12.514Z,1009.46
2018-12-04T10:22:12.503Z,1009.42
2018-12-04T10:23:12.492Z,1009.44
2018-12-04T10:24:12.483Z,1009.49
2018-12-04T10:25:12.484Z,1009.53
2018-12-04T10:26:12.461Z,1009.47
2018-12-04T10:27:12.449Z,1009.49
2018-12-04T10:28:12.440Z,1009.57
2018-12-04T10:29:12.430Z,1009.55
2018-12-04T10:30:12.419Z,1009.61
2018-12-04T10:31:12.409Z,1009.56
2018-12-04T10:32:12.397Z,1009.55
2018-12-04T10:33:12.389Z,1009.61
2018-12-04T10:34:12.378Z,1009.59
2018-12-04T10:35:12.366Z,1009.65
2018-12-04T10:36:12.381Z,1009.68
2018-12-04T10:37:12.344Z,1009.62
2018-12-04T10:38:12.333Z,1009.64
2018-12-04T10:39:12.382Z,1009.66
2018-12-04T10:40:12.312Z,1009.71
2018-12-04T10:41:12.307Z,1009.67
2018-12-04T10:42:12.361Z,1009.66
2018-12-04T10:43:12.283Z,1009.73
2018-12-04T10:44:12.274Z,1009.70
2018-12-04T10:45:12.258Z,1009.77
2018-12-04T10:46:12.250Z,1009.74
2018-12-04T10:47:12.276Z,1009.72
2018-12-04T10:48:12.261Z,1009.80
2018-12-04T10:49:12.217Z,1009.81
2018-12-04T10:50:12.207Z,1009.85
2018-12-04T10:51:12.197Z,1009.79
2018-12-04T10:52:12.188Z,1009.92
2018-12-04T10:53:12.178Z,1009.87
2018-12-04T10:54:12.167Z,1009.90
2018-12-04T10:55:12.153Z,1009.97
2018-12-04T10:56:12.144Z,1009.92
2018-12-04T10:57:12.133Z,1010.05
2018-12-04T10:58:12.157Z,1010.06
2018-12-04T10:59:12.113Z,1010.03
2018-12-04T11:00:12.183Z,1010.05
2018-12-04T11:01:12.114Z,1010.04
2018-12-04T11:02:12.079Z,1010.04
2018-12-04T11:03:12.073Z,1010.10
2018-12-04T11:04:12.061Z,1010.04
2018-12-04T11:05:12.052Z,1010.07
2018-12-04T11:06:12.043Z,1010.13
2018-12-04T11:07:12.029Z,1010.15
2018-12-04T11:08:12.018Z,1010.16
2018-12-04T11:09:12.030Z,1010.10
2018-12-04T11:10:11.999Z,1010.16
2018-12-04T11:11:11.991Z,1010.16
2018-12-04T11:12:12.332Z,1010.20
2018-12-04T11:13:11.965Z,1010.26
2018-12-04T11:14:11.955Z,1010.20
2018-12-04T11:15:11.945Z,1010.19
2018-12-04T11:16:11.939Z,1010.38
2018-12-04T11:17:11.925Z,1010.28
2018-12-04T11:18:11.910Z,1010.27
2018-12-04T11:19:11.902Z,1010.43
2018-12-04T11:20:11.901Z,1010.23
2018-12-04T11:21:11.878Z,1010.31
2018-12-04T11:22:11.883Z,1010.31
2018-12-04T11:23:11.859Z,1010.28
2018-12-04T11:24:11.848Z,1010.36
2018-12-04T11:25:11.837Z,1010.33
2018-12-04T11:26:11.829Z,1010.31
2018-12-04T11:27:11.875Z,1010.28
2018-12-04T11:28:11.806Z,1010.48
2018-12-04T11:29:11.795Z,1010.33
2018-12-04T11:30:11.833Z,1010.42
2018-12-04T11:31:11.803Z,1010.44
2018-12-04T11:32:11.763Z,1010.46
2018-12-04T11:33:11.753Z,1010.48
2018-12-04T11:34:11.741Z,1010.50
2018-12-04T11:35:11.731Z,1010.51
2018-12-04T11:36:11.721Z,1010.44
2018-12-04T11:37:11.712Z,1010.50
2018-12-04T11:38:11.707Z,1010.54
2018-12-04T11:39:11.689Z,1010.60
2018-12-04T11:40:11.678Z,1010.57
2018-12-04T11:41:11.667Z,1010.56
2018-12-04T11:42:11.731Z,1010.55
2018-12-04T11:43:11.646Z,1010.64
2018-12-04T11:44:11.636Z,1010.69
2018-12-04T11:45:11.625Z,1010.66
2018-12-04T11:46:11.646Z,1010.66
2018-12-04T11:47:11.604Z,1010.64
2018-12-04T11:48:11.600Z,1010.67
2018-12-04T11:49:11.584Z,1010.77
2018-12-04T11:50:11.573Z,1010.76
2018-12-04T11:51:11.562Z,1010.79
2018-12-04T11:52:11.601Z,1010.82
2018-12-04T11:53:11.576Z,1010.80
2018-12-04T11:54:11.535Z,1010.86
2018-12-04T11:55:11.519Z,1010.79
2018-12-04T11:56:11.513Z,1010.84
2018-12-04T11:57:11.499Z,1010.84
2018-12-04T11:58:11.490Z,1010.88
2018-12-04T11:59:11.485Z,1010.91
2018-12-04T12:00:11.468Z,1011.03
2018-12-04T12:01:11.457Z,1011.07
2018-12-04T12:02:11.451Z,1011.00
2018-12-04T12:03:11.433Z,1010.99
2018-12-04T12:04:11.459Z,1010.93
2018-12-04T12:05:11.413Z,1010.97
2018-12-04T12:06:11.403Z,1011.02
2018-12-04T12:07:11.394Z,1011.07
2018-12-04T12:08:11.381Z,1011.00
2018-12-04T12:09:11.373Z,1011.14
2018-12-04T12:10:11.362Z,1011.09
2018-12-04T12:11:11.351Z,1011.04
2018-12-04T12:12:11.340Z,1011.10
2018-12-04T12:13:11.333Z,1011.25